Antler, North Dakota
Current Conditions -  °F | °C
As of 4:58 PM on Wednesday 22 Oct 2014 (Local Time) from KMIB Reporting Station
Broken Clouds Broken Clouds  
Wind Chill: 60°   Ceiling: 5000
Heat Index: 60°   Visibility: 10mi
Dew Point: 43°   Wind: 20mph
Humidity: 53%   Direction: 280°W
Pressure: 29.76"   Gusts: 31mph
Location:  48.97°N, 101.28°W
Report Text: KMIB 222158Z AUTO 28017G27KT 10SM BKN050 BKN060 16/06 A2976 RMK AO2 PK WND 27027/49 SLP084 T01560060 $
Loading
Personal Weather Stations






























Interactive Weather Map
Tropical Storm Tracking
New forecast layout! Learn more

10-Day Weather Forecast

Advertisements
Track Severe Weather on mobile